createdAt,value
2022-07-28T00:00:28.550Z,0
2022-07-28T00:05:30.065Z,0
2022-07-28T00:10:32.793Z,0.88715
2022-07-28T00:15:34.278Z,0
2022-07-28T00:20:35.718Z,0
2022-07-28T00:25:37.200Z,0
2022-07-28T00:30:38.783Z,0.88715
2022-07-28T00:35:40.450Z,0.88715
2022-07-28T00:40:50.166Z,0
2022-07-28T00:45:51.752Z,0
2022-07-28T00:50:53.565Z,0
2022-07-28T00:56:06.353Z,0
2022-07-28T01:01:08.424Z,0
2022-07-28T01:06:09.856Z,0
2022-07-28T01:11:11.889Z,0
2022-07-28T01:16:13.349Z,0
2022-07-28T01:21:14.841Z,0
2022-07-28T01:26:16.291Z,0.88715
2022-07-28T01:31:17.887Z,0.88715
2022-07-28T01:36:19.390Z,0
2022-07-28T01:41:21.097Z,0
2022-07-28T01:46:22.836Z,0
2022-07-28T01:51:24.322Z,0
2022-07-28T01:56:25.929Z,0
2022-07-28T02:01:27.479Z,0
2022-07-28T02:06:29.152Z,0.88715
2022-07-28T02:11:32.204Z,0.88715
2022-07-28T02:16:33.859Z,0.88715
2022-07-28T02:21:36.330Z,0
2022-07-28T02:26:38.031Z,0.88715
2022-07-28T02:31:40.499Z,0.88715
2022-07-28T02:36:43.581Z,0.88715
2022-07-28T02:41:47.948Z,0
2022-07-28T02:46:49.488Z,0
2022-07-28T02:51:51.135Z,0
2022-07-28T02:56:53.446Z,0.88715
2022-07-28T03:01:55.914Z,0
2022-07-28T03:06:57.411Z,0
2022-07-28T03:12:00.922Z,0
2022-07-28T03:17:02.507Z,0
2022-07-28T03:22:04.442Z,0
2022-07-28T03:27:06.546Z,0
2022-07-28T03:32:08.019Z,0
2022-07-28T03:37:10.033Z,0.88715
2022-07-28T03:42:12.225Z,0.88715
2022-07-28T03:47:14.069Z,0
2022-07-28T03:52:15.515Z,0
2022-07-28T03:57:17.214Z,0.88715
2022-07-28T04:02:18.724Z,0
2022-07-28T04:07:20.590Z,0.88715
2022-07-28T04:12:22.489Z,0.88715
2022-07-28T04:17:24.827Z,0.88715
2022-07-28T04:22:26.669Z,0.88715
2022-07-28T04:27:28.263Z,0
2022-07-28T04:32:29.730Z,1.16185
2022-07-28T04:37:32.383Z,2.3237
2022-07-28T04:42:34.523Z,3.48555
2022-07-28T04:47:36.282Z,1.83695
2022-07-28T04:52:38.013Z,5.86645
2022-07-28T04:57:39.739Z,11.6144
2022-07-28T05:02:41.182Z,15.11055
2022-07-28T05:07:42.622Z,20.14745
2022-07-28T05:12:44.308Z,23.5844
2022-07-28T05:17:45.917Z,24.43685
2022-07-28T05:22:47.505Z,24.54715
2022-07-28T05:27:48.955Z,31.27865
2022-07-28T05:32:50.726Z,48.1169
2022-07-28T05:37:52.710Z,57.61515
2022-07-28T05:42:54.553Z,73.66045
2022-07-28T05:47:56.008Z,101.95175
2022-07-28T05:52:57.486Z,130.1879
2022-07-28T05:57:58.951Z,148.48275
2022-07-28T06:03:00.626Z,166.3707
2022-07-28T06:08:02.147Z,192.0607
2022-07-28T06:13:03.840Z,243.7373
2022-07-28T06:18:05.388Z,291.7439
2022-07-28T06:23:06.856Z,303.78645
2022-07-28T06:28:08.538Z,312.6572
2022-07-28T06:33:12.774Z,324.8842
2022-07-28T06:38:18.543Z,332.64825
2022-07-28T06:43:21.701Z,345.7785
2022-07-28T06:48:25.821Z,397.49125
2022-07-28T06:53:33.459Z,469.10375
2022-07-28T06:58:36.011Z,530.7008
2022-07-28T07:03:37.440Z,559.2127
2022-07-28T07:08:39.076Z,541.59865
2022-07-28T07:13:40.989Z,536.71165
2022-07-28T07:18:42.564Z,542.35545
2022-07-28T07:23:44.140Z,516.6636
2022-07-28T07:28:46.771Z,532.6709
2022-07-28T07:33:48.359Z,625.65875
2022-07-28T07:38:49.935Z,619.0737
2022-07-28T07:43:51.848Z,563.98385
2022-07-28T07:48:53.326Z,611.06635
2022-07-28T07:53:54.802Z,691.65805
2022-07-28T07:58:57.253Z,650.03305
2022-07-28T08:03:58.933Z,979.6235
2022-07-28T08:09:00.397Z,744.44135
2022-07-28T08:14:02.663Z,754.5898
2022-07-28T08:19:04.129Z,733.14215
2022-07-28T08:24:07.605Z,731.03905
2022-07-28T08:29:09.041Z,717.46575
2022-07-28T08:34:29.866Z,730.06165
2022-07-28T08:39:35.018Z,761.59705
2022-07-28T08:44:36.689Z,823.4337
2022-07-28T08:49:39.363Z,1321.98085
2022-07-28T08:54:42.551Z,1308.05025
2022-07-28T08:59:44.239Z,1331.7456
2022-07-28T09:04:45.784Z,1494.22755
2022-07-28T09:09:47.243Z,1499.8162
2022-07-28T09:14:49.034Z,1330.6236
2022-07-28T09:19:50.837Z,1412.27055
2022-07-28T09:24:52.514Z,1475.47435
2022-07-28T09:29:54.027Z,1446.47955
2022-07-28T09:34:55.598Z,1562.57695
2022-07-28T09:39:57.017Z,1589.21005
2022-07-28T09:45:21.262Z,1578.3845
2022-07-28T09:50:24.394Z,1317.97255
2022-07-28T09:55:25.837Z,1456.03665
2022-07-28T10:00:27.903Z,1420.7381
2022-07-28T10:05:30.169Z,1145.96175
2022-07-28T10:10:32.179Z,1013.08125
2022-07-28T10:15:34.138Z,1179.02975
2022-07-28T10:20:35.666Z,1341.03065
2022-07-28T10:25:37.361Z,1565.09065
2022-07-28T10:30:39.271Z,1706.473
2022-07-28T10:35:52.519Z,1570.6223
2022-07-28T10:40:56.998Z,1452.78885
2022-07-28T10:46:05.594Z,1302.18585
2022-07-28T10:51:08.534Z,1208
2022-07-28T10:56:10.214Z,1135.6724
2022-07-28T11:01:26.663Z,770.2852
2022-07-28T11:06:47.811Z,561.2588
2022-07-28T11:11:49.245Z,474.65255
2022-07-28T11:16:51.591Z,498.5722
2022-07-28T11:21:53.060Z,619.1687
2022-07-28T11:26:54.551Z,715.82655
2022-07-28T11:31:56.219Z,930.6469
2022-07-28T11:36:57.861Z,1205.43855
2022-07-28T11:41:59.369Z,1220.72335
2022-07-28T11:47:01.889Z,1344.30535
2022-07-28T11:52:03.351Z,1250.59685
2022-07-28T11:57:05.273Z,1189.16525
2022-07-28T12:02:06.903Z,1287.85205
2022-07-28T12:07:08.378Z,1412.246
2022-07-28T12:12:10.945Z,1224.7567
2022-07-28T12:17:13.162Z,1198.3822
2022-07-28T12:22:16.212Z,1970.30425
2022-07-28T12:27:17.678Z,1925.43145
2022-07-28T12:32:19.820Z,1702.71775
2022-07-28T12:37:21.369Z,1734.27585
2022-07-28T12:42:22.834Z,1684.9781
2022-07-28T12:47:24.584Z,1616.00305
2022-07-28T12:52:26.233Z,1441.42525
2022-07-28T12:57:27.904Z,1218.953
2022-07-28T13:02:29.650Z,919.88625
2022-07-28T13:07:31.534Z,833.87135
2022-07-28T13:12:33.013Z,767.18385
2022-07-28T13:17:35.199Z,665.5667
2022-07-28T13:22:36.761Z,498.57035
2022-07-28T13:27:38.252Z,496.04505
2022-07-28T13:32:40.096Z,528.5787
2022-07-28T13:37:43.450Z,509.0117
2022-07-28T13:42:53.176Z,444.70305
2022-07-28T13:47:58.889Z,388.26875
2022-07-28T13:53:00.337Z,328.64365
2022-07-28T13:58:08.247Z,306.97355
2022-07-28T14:03:10.661Z,308.6526
2022-07-28T14:08:13.263Z,302.0694
2022-07-28T14:13:14.690Z,281.525
2022-07-28T14:18:16.714Z,253.2337
2022-07-28T14:23:18.242Z,233.70285
2022-07-28T14:28:19.781Z,233.0392
2022-07-28T14:33:21.640Z,226.5663
2022-07-28T14:38:52.506Z,205.2651
2022-07-28T14:43:55.368Z,162.9023
2022-07-28T14:48:57.467Z,128.43285
2022-07-28T14:53:58.954Z,108.7727
2022-07-28T14:59:00.438Z,89.9245
2022-07-28T15:04:02.221Z,72.60705
2022-07-28T15:09:03.886Z,57.18925
2022-07-28T15:14:05.466Z,43.85555
2022-07-28T15:19:07.266Z,33.58335
2022-07-28T15:24:08.804Z,16.8934
2022-07-28T15:29:10.278Z,15.23335
2022-07-28T15:34:13.277Z,6.7315
2022-07-28T15:39:15.035Z,5.0163
2022-07-28T15:44:17.122Z,3.67
2022-07-28T15:49:27.592Z,0.8296
2022-07-28T15:54:29.078Z,0.47405
2022-07-28T15:59:49.958Z,1.16185
2022-07-28T16:04:54.364Z,0.88715
2022-07-28T16:09:56.328Z,0
2022-07-28T16:14:57.794Z,0.88715
2022-07-28T16:20:02.490Z,0
2022-07-28T16:25:04.355Z,0.88715
2022-07-28T16:30:05.973Z,0
2022-07-28T16:35:07.437Z,0
2022-07-28T16:40:08.891Z,0
2022-07-28T16:45:10.434Z,0.88715
2022-07-28T16:50:12.315Z,0
2022-07-28T16:55:16.125Z,0.88715
2022-07-28T17:00:20.749Z,0
2022-07-28T17:05:22.397Z,0.88715
2022-07-28T17:10:27.174Z,0.88715
2022-07-28T17:15:29.292Z,0.88715
2022-07-28T17:20:31.072Z,0
2022-07-28T17:25:59.215Z,0
2022-07-28T17:31:22.802Z,0
2022-07-28T17:36:24.623Z,0
2022-07-28T17:41:26.064Z,0
2022-07-28T17:46:27.638Z,0
2022-07-28T17:51:29.550Z,0.88715
2022-07-28T17:56:31.229Z,0
2022-07-28T18:01:32.836Z,0
2022-07-28T18:06:35.247Z,0
2022-07-28T18:11:55.279Z,0.88715
2022-07-28T18:16:57.933Z,0
2022-07-28T18:21:59.709Z,0
2022-07-28T18:27:01.293Z,0.88715
2022-07-28T18:32:02.724Z,0
2022-07-28T18:37:04.444Z,0
2022-07-28T18:42:06.083Z,0
2022-07-28T18:47:07.524Z,0
2022-07-28T18:52:09.449Z,0
2022-07-28T18:57:10.935Z,0
2022-07-28T19:02:12.600Z,0.88715
2022-07-28T19:07:14.416Z,0
2022-07-28T19:12:15.975Z,0.88715
2022-07-28T19:17:17.406Z,0
2022-07-28T19:22:19.115Z,0
2022-07-28T19:27:20.557Z,0
2022-07-28T19:32:22.006Z,0.88715
2022-07-28T19:37:23.434Z,0.88715
2022-07-28T19:42:24.987Z,0
2022-07-28T19:47:26.551Z,0.88715
2022-07-28T19:52:28.255Z,0
2022-07-28T19:57:29.726Z,0
2022-07-28T20:02:31.207Z,0
2022-07-28T20:07:32.820Z,0
2022-07-28T20:12:36.595Z,0
2022-07-28T20:17:39.739Z,0
2022-07-28T20:22:41.891Z,0
2022-07-28T20:27:43.414Z,0
2022-07-28T20:32:44.873Z,0
2022-07-28T20:37:46.511Z,0
2022-07-28T20:42:52.849Z,0
2022-07-28T20:47:54.636Z,0.88715
2022-07-28T20:52:56.491Z,0
2022-07-28T20:57:58.068Z,0
2022-07-28T21:02:59.662Z,0
2022-07-28T21:08:05.696Z,0
2022-07-28T21:13:10.534Z,0
2022-07-28T21:18:12.307Z,0.88715
2022-07-28T21:23:17.561Z,0
2022-07-28T21:28:19.141Z,0
2022-07-28T21:33:22.853Z,0.88715
2022-07-28T21:38:24.710Z,0
2022-07-28T21:43:26.358Z,0
2022-07-28T21:48:27.843Z,0
2022-07-28T21:53:29.833Z,0.88715
2022-07-28T21:58:31.320Z,0
2022-07-28T22:03:33.381Z,0.88715
2022-07-28T22:08:35.058Z,0
2022-07-28T22:13:36.641Z,0
2022-07-28T22:18:38.196Z,0
2022-07-28T22:23:40.091Z,0
2022-07-28T22:28:41.850Z,0
2022-07-28T22:33:43.534Z,0
2022-07-28T22:38:45.445Z,0.88715
2022-07-28T22:43:47.408Z,0
2022-07-28T22:48:49.043Z,0.88715
2022-07-28T22:53:50.989Z,0
2022-07-28T22:58:52.553Z,0
2022-07-28T23:03:54.199Z,0.88715
2022-07-28T23:08:55.991Z,0
2022-07-28T23:13:57.933Z,0
2022-07-28T23:18:59.755Z,0
2022-07-28T23:24:01.685Z,0
2022-07-28T23:29:03.472Z,0
2022-07-28T23:34:04.970Z,0
2022-07-28T23:39:06.838Z,0.88715
2022-07-28T23:44:08.909Z,0
2022-07-28T23:49:10.588Z,0
2022-07-28T23:54:14.275Z,0.88715
2022-07-28T23:59:16.649Z,0
